sensor_id;sensor_type;location;lat;lon;timestamp;P1;durP1;ratioP1;P2;durP2;ratioP2
23119;SDS011;11729;50.836;4.330;2023-05-09T00:01:51;12.82;;;11.60;;
23119;SDS011;11729;50.836;4.330;2023-05-09T00:04:17;13.15;;;11.90;;
23119;SDS011;11729;50.836;4.330;2023-05-09T00:06:43;16.00;;;12.32;;
23119;SDS011;11729;50.836;4.330;2023-05-09T00:09:09;15.00;;;12.00;;
23119;SDS011;11729;50.836;4.330;2023-05-09T00:11:36;12.63;;;11.32;;
23119;SDS011;11729;50.836;4.330;2023-05-09T00:14:02;12.38;;;11.10;;
23119;SDS011;11729;50.836;4.330;2023-05-09T00:16:31;17.67;;;12.10;;
23119;SDS011;11729;50.836;4.330;2023-05-09T00:18:57;12.85;;;11.50;;
23119;SDS011;11729;50.836;4.330;2023-05-09T00:21:23;14.05;;;12.13;;
23119;SDS011;11729;50.836;4.330;2023-05-09T00:23:50;13.20;;;11.48;;
23119;SDS011;11729;50.836;4.330;2023-05-09T00:26:16;12.80;;;11.57;;
23119;SDS011;11729;50.836;4.330;2023-05-09T00:28:41;12.57;;;11.38;;
23119;SDS011;11729;50.836;4.330;2023-05-09T00:31:07;13.02;;;11.60;;
23119;SDS011;11729;50.836;4.330;2023-05-09T00:33:32;12.70;;;11.45;;
23119;SDS011;11729;50.836;4.330;2023-05-09T00:35:58;13.52;;;12.07;;
23119;SDS011;11729;50.836;4.330;2023-05-09T00:38:25;15.40;;;11.15;;
23119;SDS011;11729;50.836;4.330;2023-05-09T00:40:50;13.10;;;11.68;;
23119;SDS011;11729;50.836;4.330;2023-05-09T00:43:16;14.18;;;11.40;;
23119;SDS011;11729;50.836;4.330;2023-05-09T00:45:42;13.32;;;10.93;;
23119;SDS011;11729;50.836;4.330;2023-05-09T00:48:09;14.07;;;11.47;;
23119;SDS011;11729;50.836;4.330;2023-05-09T00:50:35;16.50;;;11.88;;
23119;SDS011;11729;50.836;4.330;2023-05-09T00:53:02;15.25;;;11.48;;
23119;SDS011;11729;50.836;4.330;2023-05-09T00:55:28;14.38;;;11.88;;
23119;SDS011;11729;50.836;4.330;2023-05-09T00:57:54;13.75;;;11.85;;
23119;SDS011;11729;50.836;4.330;2023-05-09T01:00:20;13.50;;;11.98;;
23119;SDS011;11729;50.836;4.330;2023-05-09T01:02:46;16.25;;;11.82;;
23119;SDS011;11729;50.836;4.330;2023-05-09T01:05:17;15.45;;;12.30;;
23119;SDS011;11729;50.836;4.330;2023-05-09T01:13:25;19.93;;;12.17;;
23119;SDS011;11729;50.836;4.330;2023-05-09T01:21:20;21.83;;;12.05;;
23119;SDS011;11729;50.836;4.330;2023-05-09T01:29:43;16.85;;;13.13;;
23119;SDS011;11729;50.836;4.330;2023-05-09T01:32:16;18.15;;;12.40;;
23119;SDS011;11729;50.836;4.330;2023-05-09T01:34:44;14.70;;;11.20;;
23119;SDS011;11729;50.836;4.330;2023-05-09T01:37:12;14.13;;;12.07;;
23119;SDS011;11729;50.836;4.330;2023-05-09T01:39:39;13.93;;;11.93;;
23119;SDS011;11729;50.836;4.330;2023-05-09T01:42:09;16.13;;;12.13;;
23119;SDS011;11729;50.836;4.330;2023-05-09T01:44:37;15.48;;;12.23;;
23119;SDS011;11729;50.836;4.330;2023-05-09T01:47:05;18.65;;;12.10;;
23119;SDS011;11729;50.836;4.330;2023-05-09T01:49:32;17.88;;;12.40;;
23119;SDS011;11729;50.836;4.330;2023-05-09T01:52:02;15.15;;;11.80;;
23119;SDS011;11729;50.836;4.330;2023-05-09T01:54:32;17.95;;;12.02;;
23119;SDS011;11729;50.836;4.330;2023-05-09T01:57:02;15.48;;;12.30;;
23119;SDS011;11729;50.836;4.330;2023-05-09T01:59:28;18.42;;;12.10;;
23119;SDS011;11729;50.836;4.330;2023-05-09T02:01:55;15.55;;;11.88;;
23119;SDS011;11729;50.836;4.330;2023-05-09T02:04:22;14.25;;;11.52;;
23119;SDS011;11729;50.836;4.330;2023-05-09T02:06:49;15.25;;;11.65;;
23119;SDS011;11729;50.836;4.330;2023-05-09T02:09:17;17.55;;;11.68;;
23119;SDS011;11729;50.836;4.330;2023-05-09T02:11:43;16.37;;;11.90;;
23119;SDS011;11729;50.836;4.330;2023-05-09T02:14:12;18.55;;;11.30;;
23119;SDS011;11729;50.836;4.330;2023-05-09T02:16:38;18.80;;;11.60;;
23119;SDS011;11729;50.836;4.330;2023-05-09T02:19:04;15.02;;;11.05;;
23119;SDS011;11729;50.836;4.330;2023-05-09T02:21:30;15.75;;;11.23;;
23119;SDS011;11729;50.836;4.330;2023-05-09T02:23:56;19.85;;;11.90;;
23119;SDS011;11729;50.836;4.330;2023-05-09T02:26:25;15.77;;;11.43;;
23119;SDS011;11729;50.836;4.330;2023-05-09T02:28:52;17.80;;;11.70;;
23119;SDS011;11729;50.836;4.330;2023-05-09T02:31:19;16.45;;;11.88;;
23119;SDS011;11729;50.836;4.330;2023-05-09T02:33:46;13.98;;;11.15;;
23119;SDS011;11729;50.836;4.330;2023-05-09T02:36:15;14.63;;;10.75;;
23119;SDS011;11729;50.836;4.330;2023-05-09T02:38:41;17.38;;;10.80;;
23119;SDS011;11729;50.836;4.330;2023-05-09T02:41:11;17.25;;;11.40;;
23119;SDS011;11729;50.836;4.330;2023-05-09T02:43:38;18.52;;;11.80;;
23119;SDS011;11729;50.836;4.330;2023-05-09T02:46:04;14.73;;;11.13;;
23119;SDS011;11729;50.836;4.330;2023-05-09T02:48:29;15.40;;;11.27;;
23119;SDS011;11729;50.836;4.330;2023-05-09T02:50:55;15.95;;;11.43;;
23119;SDS011;11729;50.836;4.330;2023-05-09T02:53:23;15.75;;;11.45;;
23119;SDS011;11729;50.836;4.330;2023-05-09T02:55:48;13.45;;;11.38;;
23119;SDS011;11729;50.836;4.330;2023-05-09T02:58:14;13.10;;;11.35;;
23119;SDS011;11729;50.836;4.330;2023-05-09T03:00:40;15.68;;;11.30;;
23119;SDS011;11729;50.836;4.330;2023-05-09T03:03:07;16.83;;;11.73;;
23119;SDS011;11729;50.836;4.330;2023-05-09T03:05:33;15.45;;;11.77;;
23119;SDS011;11729;50.836;4.330;2023-05-09T03:07:59;14.63;;;11.15;;
23119;SDS011;11729;50.836;4.330;2023-05-09T03:10:24;17.40;;;12.55;;
23119;SDS011;11729;50.836;4.330;2023-05-09T03:12:50;14.38;;;11.90;;
23119;SDS011;11729;50.836;4.330;2023-05-09T03:15:16;16.80;;;11.88;;
23119;SDS011;11729;50.836;4.330;2023-05-09T03:17:41;14.15;;;11.27;;
23119;SDS011;11729;50.836;4.330;2023-05-09T03:20:07;19.45;;;12.15;;
23119;SDS011;11729;50.836;4.330;2023-05-09T03:22:34;16.08;;;12.10;;
23119;SDS011;11729;50.836;4.330;2023-05-09T03:25:01;11.98;;;10.52;;
23119;SDS011;11729;50.836;4.330;2023-05-09T03:27:27;14.32;;;11.38;;
23119;SDS011;11729;50.836;4.330;2023-05-09T03:29:52;15.82;;;12.20;;
23119;SDS011;11729;50.836;4.330;2023-05-09T03:32:18;15.30;;;12.32;;
23119;SDS011;11729;50.836;4.330;2023-05-09T03:34:44;15.90;;;12.40;;
23119;SDS011;11729;50.836;4.330;2023-05-09T03:37:10;17.10;;;12.55;;
23119;SDS011;11729;50.836;4.330;2023-05-09T03:39:35;15.27;;;12.65;;
23119;SDS011;11729;50.836;4.330;2023-05-09T03:42:01;19.15;;;12.27;;
23119;SDS011;11729;50.836;4.330;2023-05-09T03:44:27;15.80;;;12.07;;
23119;SDS011;11729;50.836;4.330;2023-05-09T03:46:55;17.85;;;12.68;;
23119;SDS011;11729;50.836;4.330;2023-05-09T03:49:21;14.98;;;13.38;;
23119;SDS011;11729;50.836;4.330;2023-05-09T03:51:46;15.95;;;12.50;;
23119;SDS011;11729;50.836;4.330;2023-05-09T03:54:12;19.73;;;13.23;;
23119;SDS011;11729;50.836;4.330;2023-05-09T03:56:38;16.45;;;12.35;;
23119;SDS011;11729;50.836;4.330;2023-05-09T03:59:03;15.93;;;13.38;;
23119;SDS011;11729;50.836;4.330;2023-05-09T04:01:29;18.88;;;13.75;;
23119;SDS011;11729;50.836;4.330;2023-05-09T04:03:55;15.25;;;12.63;;
23119;SDS011;11729;50.836;4.330;2023-05-09T04:06:23;17.38;;;13.25;;
23119;SDS011;11729;50.836;4.330;2023-05-09T04:08:49;14.65;;;13.10;;
23119;SDS011;11729;50.836;4.330;2023-05-09T04:11:14;17.80;;;13.30;;
23119;SDS011;11729;50.836;4.330;2023-05-09T04:13:40;18.15;;;12.90;;
23119;SDS011;11729;50.836;4.330;2023-05-09T04:16:06;16.33;;;13.65;;
23119;SDS011;11729;50.836;4.330;2023-05-09T04:18:31;16.85;;;12.70;;
23119;SDS011;11729;50.836;4.330;2023-05-09T04:20:57;15.93;;;12.95;;
23119;SDS011;11729;50.836;4.330;2023-05-09T04:23:22;15.93;;;12.70;;
23119;SDS011;11729;50.836;4.330;2023-05-09T04:25:48;18.05;;;12.38;;
23119;SDS011;11729;50.836;4.330;2023-05-09T04:28:18;14.90;;;12.60;;
23119;SDS011;11729;50.836;4.330;2023-05-09T04:30:43;13.98;;;12.05;;
23119;SDS011;11729;50.836;4.330;2023-05-09T04:33:09;13.18;;;11.88;;
23119;SDS011;11729;50.836;4.330;2023-05-09T04:35:35;13.63;;;12.18;;
23119;SDS011;11729;50.836;4.330;2023-05-09T04:38:01;19.17;;;12.13;;
23119;SDS011;11729;50.836;4.330;2023-05-09T04:40:28;15.65;;;12.98;;
23119;SDS011;11729;50.836;4.330;2023-05-09T04:42:54;14.60;;;12.25;;
23119;SDS011;11729;50.836;4.330;2023-05-09T04:45:21;15.18;;;11.75;;
23119;SDS011;11729;50.836;4.330;2023-05-09T04:47:47;13.35;;;11.95;;
23119;SDS011;11729;50.836;4.330;2023-05-09T04:50:13;16.83;;;12.07;;
23119;SDS011;11729;50.836;4.330;2023-05-09T04:52:38;16.13;;;12.35;;
23119;SDS011;11729;50.836;4.330;2023-05-09T04:55:04;13.40;;;12.00;;
23119;SDS011;11729;50.836;4.330;2023-05-09T04:57:30;18.65;;;11.88;;
23119;SDS011;11729;50.836;4.330;2023-05-09T04:59:56;14.10;;;12.30;;
23119;SDS011;11729;50.836;4.330;2023-05-09T05:02:21;13.77;;;11.95;;
23119;SDS011;11729;50.836;4.330;2023-05-09T05:04:49;16.10;;;12.30;;
23119;SDS011;11729;50.836;4.330;2023-05-09T05:07:17;14.50;;;12.82;;
23119;SDS011;11729;50.836;4.330;2023-05-09T05:09:42;15.52;;;13.38;;
23119;SDS011;11729;50.836;4.330;2023-05-09T05:12:09;16.02;;;13.55;;
23119;SDS011;11729;50.836;4.330;2023-05-09T05:14:35;15.32;;;13.02;;
23119;SDS011;11729;50.836;4.330;2023-05-09T05:17:01;16.02;;;13.98;;
23119;SDS011;11729;50.836;4.330;2023-05-09T05:19:27;16.45;;;14.18;;
23119;SDS011;11729;50.836;4.330;2023-05-09T05:21:52;17.88;;;14.75;;
23119;SDS011;11729;50.836;4.330;2023-05-09T05:24:18;16.38;;;14.15;;
23119;SDS011;11729;50.836;4.330;2023-05-09T05:26:43;15.77;;;14.18;;
23119;SDS011;11729;50.836;4.330;2023-05-09T05:29:10;16.65;;;14.82;;
23119;SDS011;11729;50.836;4.330;2023-05-09T05:31:36;19.02;;;15.43;;
23119;SDS011;11729;50.836;4.330;2023-05-09T05:34:01;17.38;;;14.90;;
23119;SDS011;11729;50.836;4.330;2023-05-09T05:36:27;19.33;;;14.40;;
23119;SDS011;11729;50.836;4.330;2023-05-09T05:38:53;17.05;;;15.20;;
23119;SDS011;11729;50.836;4.330;2023-05-09T05:41:18;18.85;;;14.65;;
23119;SDS011;11729;50.836;4.330;2023-05-09T05:43:44;18.58;;;14.85;;
23119;SDS011;11729;50.836;4.330;2023-05-09T05:46:10;22.75;;;17.27;;
23119;SDS011;11729;50.836;4.330;2023-05-09T05:48:36;24.65;;;19.23;;
23119;SDS011;11729;50.836;4.330;2023-05-09T05:51:01;19.90;;;15.15;;
23119;SDS011;11729;50.836;4.330;2023-05-09T05:53:27;16.67;;;14.57;;
23119;SDS011;11729;50.836;4.330;2023-05-09T05:55:53;19.50;;;15.30;;
23119;SDS011;11729;50.836;4.330;2023-05-09T05:58:19;16.67;;;13.90;;
23119;SDS011;11729;50.836;4.330;2023-05-09T06:00:47;18.17;;;14.13;;
23119;SDS011;11729;50.836;4.330;2023-05-09T06:03:12;14.73;;;13.15;;
23119;SDS011;11729;50.836;4.330;2023-05-09T06:05:44;17.98;;;13.77;;
23119;SDS011;11729;50.836;4.330;2023-05-09T06:08:12;14.85;;;13.15;;
23119;SDS011;11729;50.836;4.330;2023-05-09T06:10:39;15.93;;;13.38;;
23119;SDS011;11729;50.836;4.330;2023-05-09T06:13:04;16.17;;;13.15;;
23119;SDS011;11729;50.836;4.330;2023-05-09T06:15:30;15.32;;;13.48;;
23119;SDS011;11729;50.836;4.330;2023-05-09T06:17:56;13.88;;;12.48;;
23119;SDS011;11729;50.836;4.330;2023-05-09T06:20:21;16.50;;;12.48;;
23119;SDS011;11729;50.836;4.330;2023-05-09T06:22:47;15.63;;;13.07;;
23119;SDS011;11729;50.836;4.330;2023-05-09T06:25:12;13.70;;;12.23;;
23119;SDS011;11729;50.836;4.330;2023-05-09T06:27:39;14.48;;;12.38;;
23119;SDS011;11729;50.836;4.330;2023-05-09T06:30:06;15.00;;;12.73;;
23119;SDS011;11729;50.836;4.330;2023-05-09T06:32:32;15.98;;;13.55;;
23119;SDS011;11729;50.836;4.330;2023-05-09T06:34:58;22.17;;;16.98;;
23119;SDS011;11729;50.836;4.330;2023-05-09T06:37:24;17.08;;;14.32;;
23119;SDS011;11729;50.836;4.330;2023-05-09T06:39:50;14.52;;;12.35;;
23119;SDS011;11729;50.836;4.330;2023-05-09T06:42:16;15.75;;;12.25;;
23119;SDS011;11729;50.836;4.330;2023-05-09T06:44:41;12.88;;;11.52;;
23119;SDS011;11729;50.836;4.330;2023-05-09T06:47:08;15.70;;;12.30;;
23119;SDS011;11729;50.836;4.330;2023-05-09T06:49:34;13.82;;;12.35;;
23119;SDS011;11729;50.836;4.330;2023-05-09T06:51:59;15.10;;;12.13;;
23119;SDS011;11729;50.836;4.330;2023-05-09T06:54:25;14.35;;;11.80;;
23119;SDS011;11729;50.836;4.330;2023-05-09T06:56:50;13.02;;;11.82;;
23119;SDS011;11729;50.836;4.330;2023-05-09T06:59:16;13.45;;;12.15;;
23119;SDS011;11729;50.836;4.330;2023-05-09T07:01:42;20.00;;;12.48;;
23119;SDS011;11729;50.836;4.330;2023-05-09T07:04:07;14.05;;;11.93;;
23119;SDS011;11729;50.836;4.330;2023-05-09T07:06:33;13.93;;;11.50;;
23119;SDS011;11729;50.836;4.330;2023-05-09T07:08:59;12.13;;;10.93;;
23119;SDS011;11729;50.836;4.330;2023-05-09T07:11:25;14.85;;;11.77;;
23119;SDS011;11729;50.836;4.330;2023-05-09T07:13:51;14.18;;;11.52;;
23119;SDS011;11729;50.836;4.330;2023-05-09T07:16:16;13.32;;;11.35;;
23119;SDS011;11729;50.836;4.330;2023-05-09T07:18:42;15.77;;;11.70;;
23119;SDS011;11729;50.836;4.330;2023-05-09T07:21:08;16.60;;;12.15;;
23119;SDS011;11729;50.836;4.330;2023-05-09T07:23:35;15.73;;;12.00;;
23119;SDS011;11729;50.836;4.330;2023-05-09T07:26:00;14.18;;;12.00;;
23119;SDS011;11729;50.836;4.330;2023-05-09T07:28:26;17.98;;;11.90;;
23119;SDS011;11729;50.836;4.330;2023-05-09T07:30:55;21.75;;;12.95;;
23119;SDS011;11729;50.836;4.330;2023-05-09T07:33:21;15.52;;;12.82;;
23119;SDS011;11729;50.836;4.330;2023-05-09T07:35:46;33.65;;;24.35;;
23119;SDS011;11729;50.836;4.330;2023-05-09T07:38:12;16.30;;;13.55;;
23119;SDS011;11729;50.836;4.330;2023-05-09T07:40:38;14.82;;;12.40;;
23119;SDS011;11729;50.836;4.330;2023-05-09T07:43:06;15.43;;;12.00;;
23119;SDS011;11729;50.836;4.330;2023-05-09T07:45:31;15.55;;;12.02;;
23119;SDS011;11729;50.836;4.330;2023-05-09T07:47:57;15.30;;;11.35;;
23119;SDS011;11729;50.836;4.330;2023-05-09T07:50:24;12.55;;;11.13;;
23119;SDS011;11729;50.836;4.330;2023-05-09T07:52:49;12.57;;;11.02;;
23119;SDS011;11729;50.836;4.330;2023-05-09T07:55:16;13.57;;;12.02;;
23119;SDS011;11729;50.836;4.330;2023-05-09T07:57:42;11.75;;;10.57;;
23119;SDS011;11729;50.836;4.330;2023-05-09T08:00:08;13.70;;;12.13;;
23119;SDS011;11729;50.836;4.330;2023-05-09T08:02:34;16.35;;;11.98;;
23119;SDS011;11729;50.836;4.330;2023-05-09T08:05:00;11.90;;;10.15;;
23119;SDS011;11729;50.836;4.330;2023-05-09T08:07:26;12.07;;;10.75;;
23119;SDS011;11729;50.836;4.330;2023-05-09T08:09:51;12.85;;;10.85;;
23119;SDS011;11729;50.836;4.330;2023-05-09T08:12:17;13.48;;;12.07;;
23119;SDS011;11729;50.836;4.330;2023-05-09T08:14:42;13.43;;;12.02;;
23119;SDS011;11729;50.836;4.330;2023-05-09T08:17:08;14.57;;;11.40;;
23119;SDS011;11729;50.836;4.330;2023-05-09T08:19:34;13.48;;;12.07;;
23119;SDS011;11729;50.836;4.330;2023-05-09T08:21:59;12.65;;;11.45;;
23119;SDS011;11729;50.836;4.330;2023-05-09T08:24:25;13.85;;;11.90;;
23119;SDS011;11729;50.836;4.330;2023-05-09T08:26:50;13.63;;;12.18;;
23119;SDS011;11729;50.836;4.330;2023-05-09T08:29:17;15.05;;;11.93;;
23119;SDS011;11729;50.836;4.330;2023-05-09T08:31:43;14.27;;;12.85;;
23119;SDS011;11729;50.836;4.330;2023-05-09T08:34:08;15.25;;;11.70;;
23119;SDS011;11729;50.836;4.330;2023-05-09T08:36:34;13.35;;;11.75;;
23119;SDS011;11729;50.836;4.330;2023-05-09T08:39:00;17.95;;;12.45;;
23119;SDS011;11729;50.836;4.330;2023-05-09T08:41:26;15.10;;;12.43;;
23119;SDS011;11729;50.836;4.330;2023-05-09T08:43:53;13.35;;;11.80;;
23119;SDS011;11729;50.836;4.330;2023-05-09T08:46:21;15.50;;;12.13;;
23119;SDS011;11729;50.836;4.330;2023-05-09T08:48:53;13.52;;;11.73;;
23119;SDS011;11729;50.836;4.330;2023-05-09T08:51:20;14.32;;;11.48;;
23119;SDS011;11729;50.836;4.330;2023-05-09T08:53:48;14.45;;;10.80;;
23119;SDS011;11729;50.836;4.330;2023-05-09T08:56:16;14.40;;;11.50;;
23119;SDS011;11729;50.836;4.330;2023-05-09T08:58:42;13.80;;;11.30;;
23119;SDS011;11729;50.836;4.330;2023-05-09T09:01:09;12.70;;;10.35;;
23119;SDS011;11729;50.836;4.330;2023-05-09T09:03:38;13.85;;;10.50;;
23119;SDS011;11729;50.836;4.330;2023-05-09T09:06:12;15.38;;;11.15;;
23119;SDS011;11729;50.836;4.330;2023-05-09T09:08:39;15.25;;;11.45;;
23119;SDS011;11729;50.836;4.330;2023-05-09T09:11:05;17.77;;;11.83;;
23119;SDS011;11729;50.836;4.330;2023-05-09T09:13:32;13.50;;;11.13;;
23119;SDS011;11729;50.836;4.330;2023-05-09T09:16:04;15.93;;;11.73;;
23119;SDS011;11729;50.836;4.330;2023-05-09T09:18:33;12.48;;;11.27;;
23119;SDS011;11729;50.836;4.330;2023-05-09T09:21:03;13.35;;;10.68;;
23119;SDS011;11729;50.836;4.330;2023-05-09T09:23:31;13.27;;;11.15;;
23119;SDS011;11729;50.836;4.330;2023-05-09T09:25:57;15.20;;;11.32;;
23119;SDS011;11729;50.836;4.330;2023-05-09T09:28:24;13.10;;;11.10;;
23119;SDS011;11729;50.836;4.330;2023-05-09T09:30:51;13.82;;;10.32;;
23119;SDS011;11729;50.836;4.330;2023-05-09T09:33:19;13.82;;;10.73;;
23119;SDS011;11729;50.836;4.330;2023-05-09T09:35:47;11.90;;;10.68;;
23119;SDS011;11729;50.836;4.330;2023-05-09T09:38:15;11.32;;;10.10;;
23119;SDS011;11729;50.836;4.330;2023-05-09T09:43:18;11.27;;;10.27;;
23119;SDS011;11729;50.836;4.330;2023-05-09T09:45:48;11.60;;;10.48;;
23119;SDS011;11729;50.836;4.330;2023-05-09T09:48:17;13.60;;;11.50;;
23119;SDS011;11729;50.836;4.330;2023-05-09T09:50:42;35.95;;;23.10;;
23119;SDS011;11729;50.836;4.330;2023-05-09T09:55:36;15.27;;;10.90;;
23119;SDS011;11729;50.836;4.330;2023-05-09T09:58:17;11.73;;;10.25;;
23119;SDS011;11729;50.836;4.330;2023-05-09T10:00:46;11.63;;;10.43;;
23119;SDS011;11729;50.836;4.330;2023-05-09T10:03:15;14.73;;;10.50;;
23119;SDS011;11729;50.836;4.330;2023-05-09T10:05:43;12.95;;;10.35;;
23119;SDS011;11729;50.836;4.330;2023-05-09T10:08:09;13.45;;;11.57;;
23119;SDS011;11729;50.836;4.330;2023-05-09T10:10:35;22.13;;;10.73;;
23119;SDS011;11729;50.836;4.330;2023-05-09T10:13:02;12.50;;;9.60;;
23119;SDS011;11729;50.836;4.330;2023-05-09T10:15:31;11.68;;;9.88;;
23119;SDS011;11729;50.836;4.330;2023-05-09T10:17:59;17.52;;;10.38;;
23119;SDS011;11729;50.836;4.330;2023-05-09T10:20:28;13.85;;;10.25;;
23119;SDS011;11729;50.836;4.330;2023-05-09T10:22:55;11.65;;;10.20;;
23119;SDS011;11729;50.836;4.330;2023-05-09T10:25:39;15.95;;;11.07;;
23119;SDS011;11729;50.836;4.330;2023-05-09T10:28:09;11.77;;;10.05;;
23119;SDS011;11729;50.836;4.330;2023-05-09T10:30:40;12.02;;;10.77;;
23119;SDS011;11729;50.836;4.330;2023-05-09T10:33:14;13.93;;;10.90;;
23119;SDS011;11729;50.836;4.330;2023-05-09T10:35:45;10.80;;;9.70;;
23119;SDS011;11729;50.836;4.330;2023-05-09T10:38:12;14.23;;;11.07;;
23119;SDS011;11729;50.836;4.330;2023-05-09T10:40:41;12.35;;;11.05;;
23119;SDS011;11729;50.836;4.330;2023-05-09T10:43:10;11.55;;;10.38;;
23119;SDS011;11729;50.836;4.330;2023-05-09T10:45:37;13.82;;;11.00;;
23119;SDS011;11729;50.836;4.330;2023-05-09T10:48:03;14.93;;;10.48;;
23119;SDS011;11729;50.836;4.330;2023-05-09T10:50:32;12.05;;;10.85;;
23119;SDS011;11729;50.836;4.330;2023-05-09T10:56:01;12.90;;;10.95;;
23119;SDS011;11729;50.836;4.330;2023-05-09T10:58:25;14.15;;;11.15;;
23119;SDS011;11729;50.836;4.330;2023-05-09T11:00:56;12.50;;;10.90;;
23119;SDS011;11729;50.836;4.330;2023-05-09T11:03:23;12.00;;;10.77;;
23119;SDS011;11729;50.836;4.330;2023-05-09T11:05:58;12.98;;;10.65;;
23119;SDS011;11729;50.836;4.330;2023-05-09T11:08:28;13.88;;;11.18;;
23119;SDS011;11729;50.836;4.330;2023-05-09T11:10:58;17.35;;;13.60;;
23119;SDS011;11729;50.836;4.330;2023-05-09T11:13:31;15.38;;;12.55;;
23119;SDS011;11729;50.836;4.330;2023-05-09T11:18:30;19.10;;;12.40;;
23119;SDS011;11729;50.836;4.330;2023-05-09T11:20:57;14.80;;;11.35;;
23119;SDS011;11729;50.836;4.330;2023-05-09T11:23:26;17.38;;;11.50;;
23119;SDS011;11729;50.836;4.330;2023-05-09T11:26:03;13.18;;;11.38;;
23119;SDS011;11729;50.836;4.330;2023-05-09T11:28:34;23.45;;;11.68;;
23119;SDS011;11729;50.836;4.330;2023-05-09T11:31:11;15.23;;;12.45;;
23119;SDS011;11729;50.836;4.330;2023-05-09T11:33:37;13.85;;;11.25;;
23119;SDS011;11729;50.836;4.330;2023-05-09T11:36:17;13.93;;;12.53;;
23119;SDS011;11729;50.836;4.330;2023-05-09T11:41:42;17.10;;;13.10;;
23119;SDS011;11729;50.836;4.330;2023-05-09T11:44:15;18.13;;;12.55;;
23119;SDS011;11729;50.836;4.330;2023-05-09T11:46:42;15.30;;;12.88;;
23119;SDS011;11729;50.836;4.330;2023-05-09T11:49:09;16.15;;;12.90;;
23119;SDS011;11729;50.836;4.330;2023-05-09T11:51:36;16.80;;;11.98;;
23119;SDS011;11729;50.836;4.330;2023-05-09T11:54:02;13.40;;;11.60;;
23119;SDS011;11729;50.836;4.330;2023-05-09T11:56:29;15.35;;;11.48;;
23119;SDS011;11729;50.836;4.330;2023-05-09T11:58:55;13.93;;;9.98;;
23119;SDS011;11729;50.836;4.330;2023-05-09T12:01:21;12.88;;;10.73;;
23119;SDS011;11729;50.836;4.330;2023-05-09T12:03:47;17.02;;;10.65;;
23119;SDS011;11729;50.836;4.330;2023-05-09T12:06:14;11.27;;;9.95;;
23119;SDS011;11729;50.836;4.330;2023-05-09T12:08:42;12.50;;;10.75;;
23119;SDS011;11729;50.836;4.330;2023-05-09T12:11:09;12.70;;;10.93;;
23119;SDS011;11729;50.836;4.330;2023-05-09T12:13:35;10.77;;;8.80;;
23119;SDS011;11729;50.836;4.330;2023-05-09T12:16:17;10.65;;;8.63;;
23119;SDS011;11729;50.836;4.330;2023-05-09T12:18:44;9.55;;;8.20;;
23119;SDS011;11729;50.836;4.330;2023-05-09T12:21:11;15.55;;;12.77;;
23119;SDS011;11729;50.836;4.330;2023-05-09T12:23:36;12.43;;;9.85;;
23119;SDS011;11729;50.836;4.330;2023-05-09T12:26:02;11.02;;;8.77;;
23119;SDS011;11729;50.836;4.330;2023-05-09T12:28:28;10.43;;;8.05;;
23119;SDS011;11729;50.836;4.330;2023-05-09T12:30:54;7.63;;;6.85;;
23119;SDS011;11729;50.836;4.330;2023-05-09T12:33:20;7.35;;;6.45;;
23119;SDS011;11729;50.836;4.330;2023-05-09T12:35:47;6.43;;;5.93;;
23119;SDS011;11729;50.836;4.330;2023-05-09T12:38:14;6.53;;;5.93;;
23119;SDS011;11729;50.836;4.330;2023-05-09T12:40:48;6.45;;;5.82;;
23119;SDS011;11729;50.836;4.330;2023-05-09T12:43:28;6.75;;;6.10;;
23119;SDS011;11729;50.836;4.330;2023-05-09T12:45:59;7.25;;;6.35;;
23119;SDS011;11729;50.836;4.330;2023-05-09T12:48:25;14.13;;;8.80;;
23119;SDS011;11729;50.836;4.330;2023-05-09T12:50:51;9.00;;;7.47;;
23119;SDS011;11729;50.836;4.330;2023-05-09T12:53:24;7.65;;;6.95;;
23119;SDS011;11729;50.836;4.330;2023-05-09T12:55:55;9.77;;;7.22;;
23119;SDS011;11729;50.836;4.330;2023-05-09T12:58:28;8.85;;;7.95;;
23119;SDS011;11729;50.836;4.330;2023-05-09T13:00:55;9.00;;;8.02;;
23119;SDS011;11729;50.836;4.330;2023-05-09T13:03:27;8.23;;;7.43;;
23119;SDS011;11729;50.836;4.330;2023-05-09T13:06:00;8.82;;;7.43;;
23119;SDS011;11729;50.836;4.330;2023-05-09T13:08:28;9.85;;;7.55;;
23119;SDS011;11729;50.836;4.330;2023-05-09T13:10:54;8.13;;;7.43;;
23119;SDS011;11729;50.836;4.330;2023-05-09T13:13:25;10.13;;;7.35;;
23119;SDS011;11729;50.836;4.330;2023-05-09T13:15:53;8.95;;;8.05;;
23119;SDS011;11729;50.836;4.330;2023-05-09T13:18:20;10.90;;;9.18;;
23119;SDS011;11729;50.836;4.330;2023-05-09T13:20:47;9.70;;;8.07;;
23119;SDS011;11729;50.836;4.330;2023-05-09T13:23:12;9.20;;;8.30;;
23119;SDS011;11729;50.836;4.330;2023-05-09T13:25:38;9.40;;;8.48;;
23119;SDS011;11729;50.836;4.330;2023-05-09T13:28:04;9.68;;;8.70;;
23119;SDS011;11729;50.836;4.330;2023-05-09T13:30:29;9.65;;;8.75;;
23119;SDS011;11729;50.836;4.330;2023-05-09T13:32:55;10.02;;;8.85;;
23119;SDS011;11729;50.836;4.330;2023-05-09T13:35:21;11.45;;;9.18;;
23119;SDS011;11729;50.836;4.330;2023-05-09T13:37:47;10.20;;;9.18;;
23119;SDS011;11729;50.836;4.330;2023-05-09T13:40:12;9.18;;;8.27;;
23119;SDS011;11729;50.836;4.330;2023-05-09T13:42:38;9.93;;;8.90;;
23119;SDS011;11729;50.836;4.330;2023-05-09T13:45:05;9.77;;;8.90;;
23119;SDS011;11729;50.836;4.330;2023-05-09T13:47:31;9.63;;;8.48;;
23119;SDS011;11729;50.836;4.330;2023-05-09T13:49:56;9.75;;;8.70;;
23119;SDS011;11729;50.836;4.330;2023-05-09T13:52:22;11.90;;;10.73;;
23119;SDS011;11729;50.836;4.330;2023-05-09T13:54:48;18.05;;;11.63;;
23119;SDS011;11729;50.836;4.330;2023-05-09T13:57:13;11.30;;;10.20;;
23119;SDS011;11729;50.836;4.330;2023-05-09T13:59:41;11.63;;;10.02;;
23119;SDS011;11729;50.836;4.330;2023-05-09T14:02:06;10.80;;;8.88;;
23119;SDS011;11729;50.836;4.330;2023-05-09T14:04:32;9.20;;;8.25;;
23119;SDS011;11729;50.836;4.330;2023-05-09T14:06:59;8.93;;;8.13;;
23119;SDS011;11729;50.836;4.330;2023-05-09T14:09:25;8.40;;;7.78;;
23119;SDS011;11729;50.836;4.330;2023-05-09T14:11:52;9.27;;;8.48;;
23119;SDS011;11729;50.836;4.330;2023-05-09T14:14:19;9.05;;;8.35;;
23119;SDS011;11729;50.836;4.330;2023-05-09T14:16:46;10.50;;;9.52;;
23119;SDS011;11729;50.836;4.330;2023-05-09T14:19:13;9.98;;;9.07;;
23119;SDS011;11729;50.836;4.330;2023-05-09T14:21:39;10.00;;;9.15;;
23119;SDS011;11729;50.836;4.330;2023-05-09T14:24:09;10.98;;;9.82;;
23119;SDS011;11729;50.836;4.330;2023-05-09T14:26:36;10.73;;;9.57;;
23119;SDS011;11729;50.836;4.330;2023-05-09T14:29:02;14.43;;;10.35;;
23119;SDS011;11729;50.836;4.330;2023-05-09T14:31:28;10.73;;;9.65;;
23119;SDS011;11729;50.836;4.330;2023-05-09T14:33:54;10.30;;;9.18;;
23119;SDS011;11729;50.836;4.330;2023-05-09T14:36:20;14.30;;;10.13;;
23119;SDS011;11729;50.836;4.330;2023-05-09T14:38:46;11.75;;;10.55;;
23119;SDS011;11729;50.836;4.330;2023-05-09T14:41:12;10.23;;;9.32;;
23119;SDS011;11729;50.836;4.330;2023-05-09T14:43:38;10.50;;;9.50;;
23119;SDS011;11729;50.836;4.330;2023-05-09T14:46:07;7.47;;;6.75;;
23119;SDS011;11729;50.836;4.330;2023-05-09T14:48:33;3.95;;;3.75;;
23119;SDS011;11729;50.836;4.330;2023-05-09T14:51:02;4.13;;;3.92;;
23119;SDS011;11729;50.836;4.330;2023-05-09T14:53:27;5.60;;;5.20;;
23119;SDS011;11729;50.836;4.330;2023-05-09T14:55:54;4.10;;;3.90;;